createdAt,value
2023-04-06T00:00:17.697Z,5.00
2023-04-06T00:01:19.981Z,5.83
2023-04-06T00:02:22.301Z,6.10
2023-04-06T00:03:24.945Z,6.13
2023-04-06T00:04:28.239Z,6.50
2023-04-06T00:05:31.947Z,5.40
2023-04-06T00:06:35.182Z,4.83
2023-04-06T00:07:38.333Z,5.83
2023-04-06T00:08:41.739Z,6.80
2023-04-06T00:09:44.080Z,5.70
2023-04-06T00:10:46.784Z,5.90
2023-04-06T00:11:49.112Z,4.87
2023-04-06T00:12:52.879Z,5.27
2023-04-06T00:13:55.126Z,5.80
2023-04-06T00:14:57.482Z,6.33
2023-04-06T00:16:00.185Z,5.30
2023-04-06T00:17:02.802Z,6.07
2023-04-06T00:18:05.225Z,6.17
2023-04-06T00:19:08.056Z,6.03
2023-04-06T00:20:11.456Z,5.23
2023-04-06T00:21:14.566Z,6.27
2023-04-06T00:22:17.127Z,5.83
2023-04-06T00:23:20.836Z,4.90
2023-04-06T00:24:23.206Z,5.10
2023-04-06T00:25:25.660Z,4.73
2023-04-06T00:26:27.966Z,7.27
2023-04-06T00:27:32.150Z,5.77
2023-04-06T00:28:34.494Z,6.50
2023-04-06T00:29:36.874Z,4.97
2023-04-06T00:30:39.458Z,6.10
2023-04-06T00:31:41.855Z,5.50
2023-04-06T00:32:44.267Z,4.93
2023-04-06T00:33:46.600Z,5.40
2023-04-06T00:34:49.082Z,5.33
2023-04-06T00:35:52.207Z,5.77
2023-04-06T00:36:55.721Z,7.07
2023-04-06T00:37:59.680Z,5.80
2023-04-06T00:39:02.053Z,5.03
2023-04-06T00:40:06.281Z,5.90
2023-04-06T00:41:08.553Z,5.33
2023-04-06T00:42:17.342Z,5.47
2023-04-06T00:43:19.839Z,5.13
2023-04-06T00:44:22.916Z,5.97
2023-04-06T00:45:27.530Z,5.50
2023-04-06T00:46:37.441Z,5.07
2023-04-06T00:47:39.906Z,5.93
2023-04-06T00:48:42.234Z,5.63
2023-04-06T00:49:45.127Z,5.93
2023-04-06T00:50:47.425Z,6.13
2023-04-06T00:51:49.748Z,6.70
2023-04-06T00:52:52.091Z,6.50
2023-04-06T00:54:00.021Z,4.87
2023-04-06T00:55:04.221Z,5.67
2023-04-06T00:56:07.518Z,5.30
2023-04-06T00:57:21.701Z,4.83
2023-04-06T00:58:30.124Z,4.50
2023-04-06T00:59:40.495Z,5.23
2023-04-06T01:00:45.803Z,5.70
2023-04-06T01:01:52.807Z,5.97
2023-04-06T01:03:09.167Z,6.03
2023-04-06T01:04:16.371Z,5.40
2023-04-06T01:05:18.774Z,4.97
2023-04-06T01:06:26.397Z,10.00
2023-04-06T01:07:34.315Z,4.40
2023-04-06T01:08:43.151Z,6.13
2023-04-06T01:09:56.366Z,5.97
2023-04-06T01:11:03.939Z,5.10
2023-04-06T01:12:07.515Z,5.17
2023-04-06T01:13:11.199Z,5.17
2023-04-06T01:14:41.835Z,4.73
2023-04-06T01:15:44.460Z,5.87
2023-04-06T01:16:51.703Z,5.70
2023-04-06T01:17:57.273Z,5.80
2023-04-06T01:18:59.962Z,5.53
2023-04-06T01:20:06.920Z,5.10
2023-04-06T01:21:11.757Z,7.83
2023-04-06T01:22:18.185Z,5.97
2023-04-06T01:23:29.978Z,4.80
2023-04-06T01:24:37.349Z,5.17
2023-04-06T01:25:45.412Z,5.17
2023-04-06T01:26:48.834Z,5.87
2023-04-06T01:27:51.111Z,5.70
2023-04-06T01:28:59.978Z,5.70
2023-04-06T01:30:07.519Z,6.20
2023-04-06T01:31:33.277Z,4.67
2023-04-06T01:32:35.928Z,5.80
2023-04-06T01:33:38.223Z,4.90
2023-04-06T01:34:45.099Z,6.10
2023-04-06T01:35:47.397Z,5.13
2023-04-06T01:36:55.718Z,5.37
2023-04-06T01:38:06.665Z,4.80
2023-04-06T01:39:11.952Z,5.10
2023-04-06T01:40:16.129Z,5.13
2023-04-06T01:41:25.249Z,5.80
2023-04-06T01:42:29.315Z,4.90
2023-04-06T01:43:34.503Z,5.03
2023-04-06T01:44:45.581Z,6.20
2023-04-06T01:45:50.775Z,5.37
2023-04-06T01:46:57.861Z,4.87
2023-04-06T01:48:00.612Z,5.57
2023-04-06T01:49:04.067Z,5.33
2023-04-06T01:50:10.662Z,4.30
2023-04-06T01:51:18.080Z,4.80
2023-04-06T01:52:26.454Z,5.13
2023-04-06T01:53:33.015Z,5.10
2023-04-06T01:54:45.199Z,4.90
2023-04-06T01:55:51.500Z,5.07
2023-04-06T01:57:08.117Z,4.70
2023-04-06T01:58:20.510Z,4.90
2023-04-06T01:59:22.818Z,4.37
2023-04-06T02:00:25.310Z,4.07
2023-04-06T02:01:29.953Z,5.00
2023-04-06T02:02:33.778Z,4.27
2023-04-06T02:03:42.507Z,4.13
2023-04-06T02:04:46.621Z,6.40
2023-04-06T02:05:50.200Z,4.03
2023-04-06T02:07:08.037Z,4.47
2023-04-06T02:08:10.858Z,7.37
2023-04-06T02:09:16.038Z,4.30
2023-04-06T02:10:19.677Z,5.03
2023-04-06T02:11:22.058Z,4.50
2023-04-06T02:12:28.936Z,4.70
2023-04-06T02:13:31.939Z,4.73
2023-04-06T02:14:34.356Z,7.03
2023-04-06T02:15:37.190Z,4.90
2023-04-06T02:16:40.941Z,4.17
2023-04-06T02:17:43.976Z,4.63
2023-04-06T02:18:46.623Z,4.67
2023-04-06T02:19:48.849Z,5.23
2023-04-06T02:20:51.357Z,5.10
2023-04-06T02:21:53.685Z,4.50
2023-04-06T02:22:59.810Z,4.00
2023-04-06T02:24:02.151Z,4.17
2023-04-06T02:25:05.764Z,5.67
2023-04-06T02:26:08.067Z,4.13
2023-04-06T02:27:12.514Z,4.27
2023-04-06T02:28:14.797Z,5.30
2023-04-06T02:29:17.182Z,3.87
2023-04-06T02:30:19.424Z,3.97
2023-04-06T02:31:21.912Z,4.27
2023-04-06T02:32:25.496Z,4.33
2023-04-06T02:33:28.577Z,5.57
2023-04-06T02:34:31.154Z,5.77
2023-04-06T02:35:33.495Z,4.10
2023-04-06T02:36:36.370Z,5.90
2023-04-06T02:37:40.002Z,4.97
2023-04-06T02:38:42.345Z,4.87
2023-04-06T02:39:45.033Z,4.80
2023-04-06T02:40:47.528Z,5.50
2023-04-06T02:41:57.238Z,4.43
2023-04-06T02:43:01.281Z,6.93
2023-04-06T02:44:09.693Z,4.20
2023-04-06T02:45:18.320Z,4.83
2023-04-06T02:46:24.223Z,4.50
2023-04-06T02:47:26.601Z,5.90
2023-04-06T02:48:30.034Z,5.43
2023-04-06T02:49:32.343Z,4.87
2023-04-06T02:50:35.481Z,4.00
2023-04-06T02:51:41.434Z,5.13
2023-04-06T02:52:54.123Z,5.17
2023-04-06T02:53:56.862Z,6.53
2023-04-06T02:54:59.201Z,4.30
2023-04-06T02:56:07.506Z,5.33
2023-04-06T02:57:24.797Z,5.40
2023-04-06T02:58:27.127Z,6.87
2023-04-06T02:59:32.331Z,5.73
2023-04-06T03:00:44.620Z,4.40
2023-04-06T03:01:46.989Z,4.10
2023-04-06T03:02:51.081Z,5.20
2023-04-06T03:03:54.984Z,4.57
2023-04-06T03:05:02.092Z,4.77
2023-04-06T03:06:10.214Z,4.60
2023-04-06T03:07:12.860Z,5.23
2023-04-06T03:08:16.602Z,5.67
2023-04-06T03:09:21.046Z,6.40
2023-04-06T03:10:23.747Z,3.90
2023-04-06T03:11:27.768Z,4.53
2023-04-06T03:12:30.104Z,4.30
2023-04-06T03:13:52.866Z,5.10
2023-04-06T03:14:55.180Z,5.27
2023-04-06T03:15:58.838Z,6.50
2023-04-06T03:17:03.375Z,4.50
2023-04-06T03:18:08.130Z,5.63
2023-04-06T03:19:17.463Z,5.13
2023-04-06T03:20:19.737Z,4.77
2023-04-06T03:21:22.006Z,4.40
2023-04-06T03:22:28.987Z,4.80
2023-04-06T03:23:31.345Z,4.07
2023-04-06T03:24:48.251Z,4.10
2023-04-06T03:25:51.201Z,5.67
2023-04-06T03:26:56.292Z,4.60
2023-04-06T03:27:59.500Z,5.80
2023-04-06T03:29:02.498Z,5.77
2023-04-06T03:30:07.849Z,5.07
2023-04-06T03:31:11.210Z,4.77
2023-04-06T03:32:46.309Z,5.37
2023-04-06T03:33:49.052Z,5.30
2023-04-06T03:34:57.654Z,7.00
2023-04-06T03:36:00.849Z,4.57
2023-04-06T03:37:10.217Z,5.47
2023-04-06T03:38:15.868Z,5.90
2023-04-06T03:39:18.290Z,5.40
2023-04-06T03:40:20.656Z,6.60
2023-04-06T03:41:23.326Z,6.07
2023-04-06T03:42:51.919Z,5.07
2023-04-06T03:43:54.896Z,6.13
2023-04-06T03:44:57.462Z,6.33
2023-04-06T03:46:00.417Z,5.83
2023-04-06T03:47:03.588Z,4.63
2023-04-06T03:48:07.914Z,5.43
2023-04-06T03:49:12.305Z,4.37
2023-04-06T03:50:16.268Z,4.57
2023-04-06T03:51:19.782Z,5.50
2023-04-06T03:52:27.468Z,5.40
2023-04-06T03:53:29.877Z,5.23
2023-04-06T03:54:32.498Z,6.03
2023-04-06T03:55:34.817Z,5.50
2023-04-06T03:56:37.059Z,5.10
2023-04-06T03:57:41.748Z,4.30
2023-04-06T03:58:46.378Z,7.33
2023-04-06T03:59:49.955Z,5.60
2023-04-06T04:00:52.241Z,5.43
2023-04-06T04:01:54.646Z,5.13
2023-04-06T04:02:58.092Z,5.80
2023-04-06T04:04:00.756Z,5.70
2023-04-06T04:05:04.464Z,5.43
2023-04-06T04:06:08.034Z,4.87
2023-04-06T04:07:10.409Z,5.40
2023-04-06T04:08:13.888Z,5.03
2023-04-06T04:09:17.390Z,4.70
2023-04-06T04:10:19.661Z,4.80
2023-04-06T04:11:22.745Z,6.17
2023-04-06T04:12:31.129Z,4.73
2023-04-06T04:13:34.489Z,4.43
2023-04-06T04:14:39.720Z,5.87
2023-04-06T04:15:42.075Z,6.63
2023-04-06T04:16:45.798Z,5.47
2023-04-06T04:17:50.459Z,4.83
2023-04-06T04:18:52.857Z,5.77
2023-04-06T04:19:55.180Z,4.47
2023-04-06T04:20:57.469Z,5.67
2023-04-06T04:22:00.251Z,4.63
2023-04-06T04:23:09.408Z,6.10
2023-04-06T04:24:12.235Z,6.40
2023-04-06T04:25:15.870Z,6.10
2023-04-06T04:26:23.075Z,5.43
2023-04-06T04:27:25.418Z,5.43
2023-04-06T04:28:29.340Z,5.27
2023-04-06T04:29:32.364Z,4.90
2023-04-06T04:30:40.715Z,5.80
2023-04-06T04:31:46.121Z,5.37
2023-04-06T04:32:52.871Z,5.47
2023-04-06T04:33:59.307Z,5.27
2023-04-06T04:35:06.200Z,4.70
2023-04-06T04:36:12.843Z,5.40
2023-04-06T04:37:18.547Z,4.77
2023-04-06T04:38:27.388Z,5.43
2023-04-06T04:39:32.256Z,4.13
2023-04-06T04:40:41.322Z,5.87
2023-04-06T04:41:45.643Z,6.43
2023-04-06T04:42:48.617Z,4.70
2023-04-06T04:44:02.906Z,4.97
2023-04-06T04:45:06.368Z,7.57
2023-04-06T04:46:13.233Z,6.67
2023-04-06T04:47:18.503Z,5.60
2023-04-06T04:48:22.532Z,5.37
2023-04-06T04:49:44.197Z,6.17
2023-04-06T04:50:49.238Z,5.10
2023-04-06T04:51:53.831Z,5.63
2023-04-06T04:53:09.684Z,6.03
2023-04-06T04:54:13.250Z,5.77
2023-04-06T04:55:18.794Z,5.93
2023-04-06T04:56:23.792Z,5.87
2023-04-06T04:57:31.293Z,5.90
2023-04-06T04:58:33.747Z,5.97
2023-04-06T04:59:36.861Z,7.80
2023-04-06T05:00:47.875Z,6.57
2023-04-06T05:01:55.293Z,6.33
2023-04-06T05:03:05.355Z,6.23
2023-04-06T05:04:11.714Z,5.20
2023-04-06T05:05:15.319Z,6.10
2023-04-06T05:06:18.109Z,6.67
2023-04-06T05:07:22.052Z,5.93
2023-04-06T05:08:25.665Z,5.23
2023-04-06T05:09:28.010Z,7.03
2023-04-06T05:10:30.663Z,6.53
2023-04-06T05:11:36.541Z,6.73
2023-04-06T05:12:39.406Z,5.00
2023-04-06T05:13:45.151Z,5.17
2023-04-06T05:14:57.337Z,7.67
2023-04-06T05:16:00.256Z,4.83
2023-04-06T05:17:06.475Z,8.00
2023-04-06T05:18:09.527Z,7.33
2023-04-06T05:19:12.773Z,7.40
2023-04-06T05:20:19.527Z,5.40
2023-04-06T05:21:27.267Z,5.93
2023-04-06T05:22:33.621Z,5.57
2023-04-06T05:23:46.061Z,5.87
2023-04-06T05:24:48.668Z,5.87
2023-04-06T05:25:51.401Z,7.97
2023-04-06T05:26:57.270Z,6.47
2023-04-06T05:28:01.666Z,6.07
2023-04-06T05:29:12.236Z,6.37
2023-04-06T05:30:15.988Z,5.33
2023-04-06T05:31:22.035Z,7.13
2023-04-06T05:32:26.822Z,6.07
2023-04-06T05:33:29.915Z,5.03
2023-04-06T05:34:52.578Z,6.23
2023-04-06T05:35:57.441Z,7.27
2023-04-06T05:36:59.850Z,5.20
2023-04-06T05:38:02.209Z,5.33
2023-04-06T05:39:04.493Z,7.70
2023-04-06T05:40:14.602Z,7.27
2023-04-06T05:41:16.891Z,5.37
2023-04-06T05:42:19.206Z,5.47
2023-04-06T05:43:27.156Z,5.67
2023-04-06T05:44:32.283Z,5.53
2023-04-06T05:45:53.113Z,11.77
2023-04-06T05:46:56.096Z,6.43
2023-04-06T05:47:58.589Z,8.93
2023-04-06T05:49:06.883Z,7.23
2023-04-06T05:50:11.910Z,8.37
2023-04-06T05:51:15.040Z,7.27
2023-04-06T05:52:23.912Z,8.30
2023-04-06T05:53:27.646Z,7.40
2023-04-06T05:54:34.100Z,7.27
2023-04-06T05:55:37.957Z,6.13
2023-04-06T05:56:50.808Z,6.10
2023-04-06T05:57:53.137Z,6.67
2023-04-06T05:58:57.190Z,6.00
2023-04-06T06:00:07.842Z,7.13
2023-04-06T06:01:21.236Z,7.00
2023-04-06T06:02:25.366Z,4.83
2023-04-06T06:03:31.031Z,6.83
2023-04-06T06:04:34.820Z,8.07
2023-04-06T06:05:37.984Z,6.03
2023-04-06T06:06:46.081Z,7.60
2023-04-06T06:08:05.401Z,6.63
2023-04-06T06:09:07.843Z,6.80
2023-04-06T06:10:15.658Z,8.17
2023-04-06T06:11:18.020Z,6.90
2023-04-06T06:12:20.338Z,8.80
2023-04-06T06:13:25.250Z,9.80
2023-04-06T06:14:29.719Z,7.03
2023-04-06T06:15:32.306Z,9.27
2023-04-06T06:16:34.950Z,9.07
2023-04-06T06:17:39.168Z,8.97
2023-04-06T06:18:41.697Z,7.23
2023-04-06T06:19:44.240Z,7.20
2023-04-06T06:20:46.946Z,6.27
2023-04-06T06:21:49.188Z,9.43
2023-04-06T06:22:51.530Z,6.33
2023-04-06T06:23:56.706Z,8.77
2023-04-06T06:25:00.002Z,9.30
2023-04-06T06:26:02.545Z,5.87
2023-04-06T06:27:06.018Z,5.43
2023-04-06T06:28:09.976Z,6.90
2023-04-06T06:29:12.776Z,6.40
2023-04-06T06:30:16.141Z,7.00
2023-04-06T06:31:24.714Z,7.73
2023-04-06T06:32:28.936Z,6.23
2023-04-06T06:33:31.477Z,6.27
2023-04-06T06:34:34.996Z,5.47
2023-04-06T06:35:39.855Z,6.57
2023-04-06T06:36:42.328Z,6.57
2023-04-06T06:37:47.932Z,6.43
2023-04-06T06:38:53.530Z,6.73
2023-04-06T06:39:57.087Z,5.53
2023-04-06T06:41:00.178Z,5.13
2023-04-06T06:42:06.692Z,6.73
2023-04-06T06:43:23.243Z,7.70
2023-04-06T06:44:31.511Z,5.83
2023-04-06T06:45:34.460Z,7.63
2023-04-06T06:46:36.778Z,7.13
2023-04-06T06:47:40.296Z,7.20
2023-04-06T06:48:42.637Z,6.03
2023-04-06T06:49:45.570Z,8.47
2023-04-06T06:50:50.648Z,6.90
2023-04-06T06:51:52.962Z,6.47
2023-04-06T06:52:55.930Z,7.07
2023-04-06T06:53:58.359Z,6.63
2023-04-06T06:55:01.533Z,6.93
2023-04-06T06:56:04.482Z,6.97
2023-04-06T06:57:07.089Z,5.63
2023-04-06T06:58:10.889Z,6.03
2023-04-06T06:59:13.537Z,7.60
2023-04-06T07:00:17.252Z,7.80
2023-04-06T07:01:22.204Z,6.73
2023-04-06T07:02:26.116Z,7.63
2023-04-06T07:03:30.624Z,6.10
2023-04-06T07:04:33.145Z,8.77
2023-04-06T07:05:35.592Z,6.20
2023-04-06T07:06:39.006Z,6.60
2023-04-06T07:07:43.928Z,6.90
2023-04-06T07:08:46.447Z,8.50
2023-04-06T07:09:48.889Z,7.43
2023-04-06T07:10:57.718Z,6.63
2023-04-06T07:12:00.192Z,7.77
2023-04-06T07:13:03.628Z,7.00
2023-04-06T07:14:06.124Z,7.93
2023-04-06T07:15:09.017Z,6.37
2023-04-06T07:16:12.305Z,6.73
2023-04-06T07:17:14.795Z,7.40
2023-04-06T07:18:18.340Z,8.27
2023-04-06T07:19:21.641Z,8.43
2023-04-06T07:20:24.394Z,6.80
2023-04-06T07:21:28.477Z,7.33
2023-04-06T07:22:32.027Z,8.73
2023-04-06T07:23:34.304Z,6.90
2023-04-06T07:24:36.773Z,7.00
2023-04-06T07:25:39.183Z,8.03
2023-04-06T07:26:41.525Z,6.70
2023-04-06T07:27:44.190Z,7.23
2023-04-06T07:28:47.153Z,8.83
2023-04-06T07:29:51.020Z,7.50
2023-04-06T07:30:55.531Z,7.10
2023-04-06T07:31:59.170Z,8.45
2023-04-06T07:33:02.310Z,6.65
2023-04-06T07:34:05.136Z,6.10
2023-04-06T07:35:07.684Z,6.93
2023-04-06T07:36:09.953Z,8.48
2023-04-06T07:37:12.442Z,7.10
2023-04-06T07:38:15.541Z,7.05
2023-04-06T07:39:19.734Z,9.57
2023-04-06T07:40:22.810Z,7.68
2023-04-06T07:41:26.007Z,7.55
2023-04-06T07:42:29.049Z,7.45
2023-04-06T07:43:32.054Z,7.25
2023-04-06T07:44:34.407Z,6.32
2023-04-06T07:45:36.852Z,6.57
2023-04-06T07:46:39.601Z,6.72
2023-04-06T07:47:42.350Z,7.00
2023-04-06T07:48:44.805Z,7.65
2023-04-06T07:49:47.203Z,7.28
2023-04-06T07:50:49.823Z,7.25
2023-04-06T07:51:52.293Z,6.38
2023-04-06T07:52:54.907Z,7.85
2023-04-06T07:53:57.230Z,8.20
2023-04-06T07:55:00.072Z,6.60
2023-04-06T07:56:05.697Z,6.57
2023-04-06T07:57:08.068Z,6.68
2023-04-06T07:58:10.444Z,6.72
2023-04-06T07:59:13.094Z,7.00
2023-04-06T08:00:21.173Z,6.45
2023-04-06T08:01:24.075Z,5.90
2023-04-06T08:02:26.682Z,6.95
2023-04-06T08:03:29.382Z,8.55
2023-04-06T08:04:31.969Z,9.85
2023-04-06T08:05:34.686Z,8.00
2023-04-06T08:06:37.906Z,7.00
2023-04-06T08:07:40.910Z,5.65
2023-04-06T08:08:44.288Z,6.60
2023-04-06T08:09:46.566Z,6.45
2023-04-06T08:10:49.840Z,8.00
2023-04-06T08:11:52.250Z,8.80
2023-04-06T08:12:54.580Z,6.90
2023-04-06T08:13:58.212Z,6.78
2023-04-06T08:15:03.642Z,7.55
2023-04-06T08:16:06.429Z,7.35
2023-04-06T08:17:08.851Z,12.10
2023-04-06T08:18:11.658Z,8.27
2023-04-06T08:19:13.957Z,7.93
2023-04-06T08:20:16.495Z,8.90
2023-04-06T08:21:19.445Z,12.10
2023-04-06T08:22:21.713Z,6.95
2023-04-06T08:23:24.093Z,5.95
2023-04-06T08:24:26.638Z,6.60
2023-04-06T08:25:29.195Z,8.77
2023-04-06T08:26:31.833Z,7.95
2023-04-06T08:27:34.228Z,6.70
2023-04-06T08:28:36.682Z,6.20
2023-04-06T08:29:39.400Z,7.20
2023-04-06T08:30:42.862Z,7.40
2023-04-06T08:31:45.205Z,7.45
2023-04-06T08:32:47.516Z,5.85
2023-04-06T08:33:49.925Z,6.40
2023-04-06T08:34:55.135Z,5.70
2023-04-06T08:35:57.475Z,5.30
2023-04-06T08:37:01.278Z,8.73
2023-04-06T08:38:04.209Z,5.60
2023-04-06T08:39:09.530Z,6.28
2023-04-06T08:40:13.192Z,8.93
2023-04-06T08:41:18.946Z,8.55
2023-04-06T08:42:26.428Z,5.30
2023-04-06T08:43:33.149Z,7.57
2023-04-06T08:44:35.540Z,7.90
2023-04-06T08:45:38.227Z,5.53
2023-04-06T08:46:40.717Z,5.47
2023-04-06T08:47:43.696Z,8.23
2023-04-06T08:48:49.986Z,5.47
2023-04-06T08:49:53.362Z,5.70
2023-04-06T08:50:59.023Z,5.55
2023-04-06T08:52:01.792Z,5.13
2023-04-06T08:53:04.279Z,5.45
2023-04-06T08:54:07.042Z,5.03
2023-04-06T08:55:09.834Z,5.28
2023-04-06T08:56:12.698Z,5.32
2023-04-06T08:57:16.365Z,6.03
2023-04-06T08:58:31.230Z,5.07
2023-04-06T08:59:41.928Z,5.85
2023-04-06T09:00:45.524Z,5.43
2023-04-06T09:01:48.898Z,4.80
2023-04-06T09:02:56.310Z,4.85
2023-04-06T09:04:01.771Z,5.25
2023-04-06T09:05:04.887Z,4.40
2023-04-06T09:06:08.548Z,4.85
2023-04-06T09:07:10.901Z,4.25
2023-04-06T09:08:13.315Z,4.25
2023-04-06T09:09:15.934Z,4.35
2023-04-06T09:10:18.367Z,5.13
2023-04-06T09:11:21.119Z,5.38
2023-04-06T09:12:28.591Z,5.07
2023-04-06T09:13:31.345Z,5.00
2023-04-06T09:14:40.630Z,4.82
2023-04-06T09:15:43.004Z,7.53
2023-04-06T09:16:46.948Z,6.80
2023-04-06T09:17:49.467Z,4.35
2023-04-06T09:18:51.937Z,5.30
2023-04-06T09:19:54.956Z,6.75
2023-04-06T09:21:04.486Z,5.10
2023-04-06T09:22:10.595Z,5.57
2023-04-06T09:23:19.834Z,4.70
2023-04-06T09:24:27.409Z,4.68
2023-04-06T09:25:29.841Z,4.88
2023-04-06T09:26:35.001Z,4.45
2023-04-06T09:27:39.416Z,4.25
2023-04-06T09:28:53.284Z,5.10
2023-04-06T09:30:07.803Z,4.82
2023-04-06T09:31:11.361Z,7.07
2023-04-06T09:32:17.867Z,5.20
2023-04-06T09:33:26.133Z,4.63
2023-04-06T09:34:28.503Z,4.43
2023-04-06T09:35:32.611Z,4.20
2023-04-06T09:36:43.104Z,4.80
2023-04-06T09:37:45.543Z,4.38
2023-04-06T09:38:56.624Z,4.03
2023-04-06T09:40:09.046Z,4.25
2023-04-06T09:41:11.618Z,4.38
2023-04-06T09:42:26.254Z,3.40
2023-04-06T09:43:29.313Z,3.85
2023-04-06T09:44:31.847Z,4.28
2023-04-06T09:45:34.391Z,4.55
2023-04-06T09:46:57.663Z,4.25
2023-04-06T09:48:02.753Z,3.85
2023-04-06T09:49:06.445Z,3.72
2023-04-06T09:50:12.241Z,4.38
2023-04-06T09:51:16.638Z,3.83
2023-04-06T09:52:19.445Z,3.53
2023-04-06T09:53:23.045Z,3.50
2023-04-06T09:54:29.375Z,4.63
2023-04-06T09:55:44.416Z,4.10
2023-04-06T09:56:48.725Z,4.32
2023-04-06T09:58:07.690Z,3.70
2023-04-06T09:59:22.389Z,3.28
2023-04-06T10:00:26.753Z,3.58
2023-04-06T10:01:33.226Z,3.60
2023-04-06T10:02:54.294Z,3.97
2023-04-06T10:04:27.957Z,4.88
2023-04-06T10:05:47.102Z,3.83
2023-04-06T10:06:53.589Z,3.28
2023-04-06T10:08:01.407Z,3.63
2023-04-06T10:09:09.081Z,3.45
2023-04-06T10:10:13.278Z,3.42
2023-04-06T10:11:16.683Z,3.67
2023-04-06T10:12:19.236Z,3.75
2023-04-06T10:13:21.966Z,3.63
2023-04-06T10:14:24.577Z,3.58
2023-04-06T10:15:33.658Z,5.55
2023-04-06T10:16:37.084Z,4.32
2023-04-06T10:17:39.545Z,3.97
2023-04-06T10:18:48.134Z,4.07
2023-04-06T10:19:55.705Z,4.03
2023-04-06T10:21:06.086Z,3.67
2023-04-06T10:22:13.516Z,7.50
2023-04-06T10:23:32.593Z,3.65
2023-04-06T10:24:34.972Z,3.50
2023-04-06T10:25:38.963Z,5.20
2023-04-06T10:26:41.392Z,3.50
2023-04-06T10:27:43.705Z,3.47
2023-04-06T10:28:47.790Z,3.78
2023-04-06T10:29:51.327Z,4.90
2023-04-06T10:31:01.356Z,4.10
2023-04-06T10:32:04.086Z,3.35
2023-04-06T10:33:21.953Z,3.70
2023-04-06T10:34:26.873Z,4.05
2023-04-06T10:35:39.841Z,4.13
2023-04-06T10:36:43.158Z,3.30
2023-04-06T10:37:53.003Z,3.50
2023-04-06T10:38:58.598Z,3.47
2023-04-06T10:40:00.908Z,3.58
2023-04-06T10:41:10.637Z,3.40
2023-04-06T10:42:13.055Z,3.58
2023-04-06T10:43:25.196Z,3.35
2023-04-06T10:44:27.498Z,3.63
2023-04-06T10:45:32.834Z,3.20
2023-04-06T10:46:35.516Z,3.60
2023-04-06T10:47:44.193Z,3.10
2023-04-06T10:48:47.933Z,4.85
2023-04-06T10:49:50.231Z,3.90
2023-04-06T10:50:53.919Z,3.45
2023-04-06T10:51:57.800Z,3.83
2023-04-06T10:53:02.085Z,3.53
2023-04-06T10:54:05.557Z,3.58
2023-04-06T10:55:11.211Z,7.13
2023-04-06T10:56:16.539Z,3.67
2023-04-06T10:57:29.834Z,4.35
2023-04-06T10:58:32.100Z,3.95
2023-04-06T10:59:34.492Z,4.38
2023-04-06T11:00:50.220Z,4.50
2023-04-06T11:01:54.397Z,4.15
2023-04-06T11:03:01.811Z,4.80
2023-04-06T11:04:05.902Z,3.97
2023-04-06T11:05:08.827Z,6.03
2023-04-06T11:06:11.304Z,3.42
2023-04-06T11:07:28.001Z,4.07
2023-04-06T11:08:34.210Z,3.80
2023-04-06T11:09:37.904Z,4.13
2023-04-06T11:10:40.260Z,5.18
2023-04-06T11:11:42.631Z,4.40
2023-04-06T11:12:44.916Z,4.25
2023-04-06T11:13:50.865Z,3.58
2023-04-06T11:15:07.146Z,4.28
2023-04-06T11:16:22.497Z,3.55
2023-04-06T11:17:32.202Z,3.95
2023-04-06T11:18:34.537Z,4.45
2023-04-06T11:19:41.839Z,4.00
2023-04-06T11:20:48.981Z,9.55
2023-04-06T11:21:51.391Z,9.73
2023-04-06T11:22:54.053Z,3.83
2023-04-06T11:24:06.086Z,4.30
2023-04-06T11:26:14.210Z,4.93
2023-04-06T11:27:17.596Z,4.65
2023-04-06T11:28:21.211Z,4.65
2023-04-06T11:29:26.690Z,4.18
2023-04-06T11:30:30.286Z,3.90
2023-04-06T11:31:32.940Z,5.07
2023-04-06T11:32:44.066Z,4.18
2023-04-06T11:33:46.489Z,3.67
2023-04-06T11:34:49.748Z,4.00
2023-04-06T11:35:52.337Z,5.57
2023-04-06T11:37:00.998Z,3.83
2023-04-06T11:38:06.997Z,4.22
2023-04-06T11:39:11.323Z,4.72
2023-04-06T11:40:13.768Z,4.20
2023-04-06T11:41:16.305Z,4.25
2023-04-06T11:42:25.157Z,3.80
2023-04-06T11:43:29.706Z,3.42
2023-04-06T11:44:47.167Z,3.95
2023-04-06T11:45:52.708Z,4.28
2023-04-06T11:46:55.364Z,4.20
2023-04-06T11:48:02.622Z,4.72
2023-04-06T11:49:05.096Z,5.75
2023-04-06T11:50:10.126Z,4.05
2023-04-06T11:51:12.479Z,4.32
2023-04-06T11:52:21.868Z,3.75
2023-04-06T11:53:24.325Z,3.78
2023-04-06T11:54:33.020Z,3.97
2023-04-06T11:55:39.831Z,5.13
2023-04-06T11:56:42.880Z,3.42
2023-04-06T11:57:46.341Z,4.10
2023-04-06T11:58:48.659Z,4.30
2023-04-06T11:59:51.152Z,4.13
2023-04-06T12:00:54.073Z,3.97
2023-04-06T12:01:58.634Z,3.85
2023-04-06T12:03:01.024Z,3.78
2023-04-06T12:04:03.949Z,3.70
2023-04-06T12:05:07.644Z,3.97
2023-04-06T12:06:10.346Z,3.83
2023-04-06T12:07:12.657Z,4.88
2023-04-06T12:08:15.029Z,4.03
2023-04-06T12:09:21.496Z,3.78
2023-04-06T12:10:23.847Z,4.05
2023-04-06T12:11:26.374Z,4.53
2023-04-06T12:12:29.773Z,4.00
2023-04-06T12:13:32.060Z,3.92
2023-04-06T12:14:34.435Z,4.35
2023-04-06T12:15:37.173Z,5.28
2023-04-06T12:16:39.999Z,4.28
2023-04-06T12:17:43.153Z,4.10
2023-04-06T12:18:45.532Z,4.57
2023-04-06T12:19:47.971Z,4.00
2023-04-06T12:20:50.316Z,4.38
2023-04-06T12:21:54.497Z,4.55
2023-04-06T12:22:58.114Z,5.90
2023-04-06T12:24:01.630Z,4.50
2023-04-06T12:25:04.887Z,4.72
2023-04-06T12:26:13.404Z,4.65
2023-04-06T12:27:18.260Z,4.40
2023-04-06T12:28:24.312Z,4.18
2023-04-06T12:29:26.899Z,3.83
2023-04-06T12:30:29.640Z,4.80
2023-04-06T12:31:32.025Z,4.70
2023-04-06T12:32:34.609Z,5.20
2023-04-06T12:33:36.951Z,4.57
2023-04-06T12:34:39.265Z,4.70
2023-04-06T12:35:41.632Z,4.07
2023-04-06T12:36:44.023Z,4.63
2023-04-06T12:37:46.408Z,4.93
2023-04-06T12:38:49.554Z,3.90
2023-04-06T12:39:51.974Z,4.03
2023-04-06T12:40:54.256Z,5.55
2023-04-06T12:41:57.594Z,4.40
2023-04-06T12:43:02.139Z,6.50
2023-04-06T12:44:04.481Z,4.78
2023-04-06T12:45:07.468Z,4.03
2023-04-06T12:46:10.074Z,6.38
2023-04-06T12:47:12.469Z,3.67
2023-04-06T12:48:15.160Z,4.30
2023-04-06T12:49:19.808Z,4.07
2023-04-06T12:50:22.080Z,4.28
2023-04-06T12:51:24.377Z,4.32
2023-04-06T12:52:28.602Z,4.15
2023-04-06T12:53:31.579Z,4.03
2023-04-06T12:54:33.902Z,4.00
2023-04-06T12:55:36.741Z,4.78
2023-04-06T12:56:39.107Z,4.15
2023-04-06T12:57:42.831Z,4.07
2023-04-06T12:58:46.775Z,5.00
2023-04-06T12:59:49.714Z,4.22
2023-04-06T13:00:52.113Z,3.85
2023-04-06T13:01:54.909Z,4.18
2023-04-06T13:02:58.504Z,4.82
2023-04-06T13:04:00.852Z,3.72
2023-04-06T13:05:04.375Z,4.28
2023-04-06T13:06:09.591Z,3.80
2023-04-06T13:07:11.884Z,4.68
2023-04-06T13:08:15.701Z,4.45
2023-04-06T13:09:18.098Z,4.28
2023-04-06T13:10:20.415Z,6.50
2023-04-06T13:11:26.870Z,4.25
2023-04-06T13:12:29.364Z,3.50
2023-04-06T13:13:32.462Z,4.38
2023-04-06T13:14:34.849Z,5.28
2023-04-06T13:15:37.618Z,4.25
2023-04-06T13:16:39.972Z,4.05
2023-04-06T13:17:42.369Z,4.05
2023-04-06T13:18:44.920Z,5.20
2023-04-06T13:19:48.273Z,4.05
2023-04-06T13:20:51.746Z,3.90
2023-04-06T13:21:54.706Z,3.95
2023-04-06T13:22:56.956Z,3.90
2023-04-06T13:23:59.298Z,3.60
2023-04-06T13:25:01.875Z,3.92
2023-04-06T13:26:07.089Z,3.28
2023-04-06T13:27:09.375Z,4.85
2023-04-06T13:28:11.955Z,5.15
2023-04-06T13:29:14.343Z,4.18
2023-04-06T13:30:18.000Z,4.20
2023-04-06T13:31:21.904Z,4.20
2023-04-06T13:32:25.969Z,3.97
2023-04-06T13:33:30.686Z,4.32
2023-04-06T13:34:34.532Z,4.28
2023-04-06T13:35:36.958Z,4.40
2023-04-06T13:36:41.973Z,6.03
2023-04-06T13:37:45.539Z,4.78
2023-04-06T13:38:50.389Z,4.20
2023-04-06T13:39:52.679Z,4.13
2023-04-06T13:40:55.204Z,4.18
2023-04-06T13:41:57.816Z,4.10
2023-04-06T13:43:00.152Z,3.83
2023-04-06T13:44:02.433Z,4.10
2023-04-06T13:45:05.590Z,4.30
2023-04-06T13:46:07.972Z,4.97
2023-04-06T13:47:10.791Z,4.07
2023-04-06T13:48:13.048Z,3.97
2023-04-06T13:49:16.985Z,4.40
2023-04-06T13:50:19.445Z,4.10
2023-04-06T13:51:21.895Z,4.63
2023-04-06T13:52:24.888Z,5.28
2023-04-06T13:53:27.316Z,4.20
2023-04-06T13:54:29.592Z,5.47
2023-04-06T13:55:32.798Z,3.70
2023-04-06T13:56:35.371Z,4.13
2023-04-06T13:57:38.038Z,3.40
2023-04-06T13:58:40.363Z,4.15
2023-04-06T14:00:47.557Z,4.05
2023-04-06T14:01:52.948Z,5.53
2023-04-06T14:02:56.623Z,4.10
2023-04-06T14:03:59.960Z,4.28
2023-04-06T14:05:02.474Z,3.78
2023-04-06T14:06:20.780Z,3.80
2023-04-06T14:07:29.850Z,3.55
2023-04-06T14:08:34.265Z,3.53
2023-04-06T14:09:36.848Z,3.85
2023-04-06T14:10:41.520Z,4.93
2023-04-06T14:11:43.868Z,4.00
2023-04-06T14:12:47.030Z,4.05
2023-04-06T14:13:49.295Z,4.03
2023-04-06T14:14:51.736Z,3.95
2023-04-06T14:15:56.051Z,3.67
2023-04-06T14:16:58.354Z,4.00
2023-04-06T14:18:01.737Z,3.50
2023-04-06T14:19:04.043Z,4.35
2023-04-06T14:20:15.099Z,3.80
2023-04-06T14:21:17.479Z,4.00
2023-04-06T14:22:19.740Z,4.70
2023-04-06T14:23:23.848Z,4.30
2023-04-06T14:24:26.131Z,4.00
2023-04-06T14:25:28.837Z,4.05